Time;durP1;ratioP1;P1;durP2;ratioP2;P2;SDS_P1;SDS_P2;PMS_P1;PMS_P2;Temp;Humidity;BMP_temperature;BMP_pressure;BME280_temperature;BME280_humidity;BME280_pressure;Samples;Min_cycle;Max_cycle;Signal;HPM_P1;HPM_P2
2021/03/24 00:01:50;;;;;;;11.45;6.57;;;;;;;;;;5038915;28;20053;-79
2021/03/24 00:04:16;;;;;;;10.52;5.35;;;;;;;;;;5038840;28;20096;-79
2021/03/24 00:06:43;;;;;;;10.30;5.18;;;;;;;;;;5054457;28;20123;-79
2021/03/24 00:09:12;;;;;;;11.50;6.05;;;;;;;;;;5054738;28;20049;-82
2021/03/24 00:11:38;;;;;;;12.05;6.35;;;;;;;;;;5039600;28;20374;-78
2021/03/24 00:14:05;;;;;;;9.70;5.78;;;;;;;;;;5038702;28;20049;-77
2021/03/24 00:16:31;;;;;;;14.32;7.18;;;;;;;;;;5039246;28;20045;-78
2021/03/24 00:18:57;;;;;;;12.93;5.97;;;;;;;;;;5038645;28;20054;-80
2021/03/24 00:21:23;;;;;;;13.40;6.78;;;;;;;;;;5038615;28;20127;-79
2021/03/24 00:23:50;;;;;;;11.20;6.43;;;;;;;;;;5041364;28;20052;-78
2021/03/24 00:26:16;;;;;;;10.95;6.20;;;;;;;;;;5058208;28;20055;-80
2021/03/24 00:28:42;;;;;;;13.70;5.68;;;;;;;;;;5051491;28;20440;-79
2021/03/24 00:31:07;;;;;;;20.58;9.50;;;;;;;;;;5036966;28;20103;-80
2021/03/24 00:33:34;;;;;;;21.80;11.75;;;;;;;;;;5036707;28;20049;-82
2021/03/24 00:36:00;;;;;;;15.95;8.77;;;;;;;;;;5037106;28;20061;-79
2021/03/24 00:38:26;;;;;;;14.05;8.07;;;;;;;;;;5056615;28;20119;-81
2021/03/24 00:40:55;;;;;;;18.40;7.90;;;;;;;;;;5038775;28;20045;-80
2021/03/24 00:43:21;;;;;;;14.18;6.82;;;;;;;;;;5036115;28;20054;-80
2021/03/24 00:45:47;;;;;;;15.60;7.22;;;;;;;;;;5040053;28;20077;-80
2021/03/24 00:48:17;;;;;;;13.20;6.75;;;;;;;;;;5043834;28;20053;-81
2021/03/24 00:50:44;;;;;;;11.52;6.47;;;;;;;;;;5041678;28;20049;-80
2021/03/24 00:53:10;;;;;;;15.30;7.25;;;;;;;;;;5050666;28;20508;-81
2021/03/24 00:55:35;;;;;;;14.07;7.03;;;;;;;;;;5047009;28;20045;-81
2021/03/24 00:58:03;;;;;;;16.50;8.23;;;;;;;;;;5049130;28;20048;-81
2021/03/24 01:00:32;;;;;;;12.80;6.72;;;;;;;;;;5044546;28;20056;-80
2021/03/24 01:02:58;;;;;;;14.68;6.68;;;;;;;;;;5042725;28;20041;-80
2021/03/24 01:05:25;;;;;;;12.57;7.05;;;;;;;;;;5047512;28;20128;-80
2021/03/24 01:07:52;;;;;;;14.07;6.85;;;;;;;;;;5059207;28;20041;-81
2021/03/24 01:10:22;;;;;;;14.25;6.63;;;;;;;;;;5048304;28;20058;-80
2021/03/24 01:12:48;;;;;;;13.65;6.18;;;;;;;;;;5049122;28;20056;-81
2021/03/24 01:15:15;;;;;;;14.20;7.70;;;;;;;;;;5060310;28;20049;-80
2021/03/24 01:17:41;;;;;;;12.57;6.82;;;;;;;;;;5045743;28;20061;-79
2021/03/24 01:20:09;;;;;;;13.60;7.22;;;;;;;;;;5050375;28;20530;-81
2021/03/24 01:22:35;;;;;;;11.13;5.93;;;;;;;;;;5059555;28;20053;-79
2021/03/24 01:25:01;;;;;;;11.60;6.13;;;;;;;;;;5051011;28;20101;-80
2021/03/24 01:27:27;;;;;;;13.35;7.90;;;;;;;;;;5041064;28;20497;-80
2021/03/24 01:29:52;;;;;;;11.10;6.00;;;;;;;;;;5039229;28;20045;-83
2021/03/24 01:32:19;;;;;;;12.73;6.47;;;;;;;;;;5039243;28;20064;-81
2021/03/24 01:34:45;;;;;;;13.10;6.75;;;;;;;;;;5043778;28;20041;-80
2021/03/24 01:37:11;;;;;;;16.92;7.03;;;;;;;;;;5040375;28;20053;-81
2021/03/24 01:39:37;;;;;;;9.88;6.53;;;;;;;;;;5039840;28;20156;-80
2021/03/24 01:42:04;;;;;;;15.73;7.13;;;;;;;;;;5039330;28;20049;-79
2021/03/24 01:44:30;;;;;;;18.30;9.07;;;;;;;;;;5051540;28;20042;-85
2021/03/24 01:46:56;;;;;;;12.77;6.65;;;;;;;;;;5048239;28;20056;-80
2021/03/24 01:49:26;;;;;;;13.65;7.30;;;;;;;;;;5047256;28;20127;-80
2021/03/24 01:51:54;;;;;;;13.75;7.70;;;;;;;;;;5058790;28;20075;-79
2021/03/24 01:54:23;;;;;;;11.93;6.47;;;;;;;;;;5049005;28;20057;-80
2021/03/24 01:56:53;;;;;;;12.45;6.28;;;;;;;;;;5053217;28;20037;-80
2021/03/24 01:59:20;;;;;;;14.27;7.10;;;;;;;;;;5053250;28;20054;-81
2021/03/24 02:01:46;;;;;;;12.85;8.27;;;;;;;;;;5039239;28;20087;-80
2021/03/24 02:04:12;;;;;;;14.20;6.93;;;;;;;;;;5039551;28;20049;-81
2021/03/24 02:06:43;;;;;;;17.20;7.63;;;;;;;;;;5051904;28;20133;-80
2021/03/24 02:09:15;;;;;;;13.40;7.00;;;;;;;;;;5055870;28;20049;-81
2021/03/24 02:11:47;;;;;;;16.23;7.18;;;;;;;;;;5055058;28;20110;-79
2021/03/24 02:14:17;;;;;;;15.68;7.32;;;;;;;;;;5046533;28;20097;-83
2021/03/24 02:16:46;;;;;;;16.45;9.60;;;;;;;;;;5046582;28;20456;-79
2021/03/24 02:19:21;;;;;;;15.70;7.93;;;;;;;;;;5046985;28;20056;-80
2021/03/24 02:21:48;;;;;;;15.45;8.48;;;;;;;;;;5059862;28;20080;-80
2021/03/24 02:24:24;;;;;;;16.60;7.82;;;;;;;;;;5059051;28;20055;-80
2021/03/24 02:27:01;;;;;;;14.02;7.45;;;;;;;;;;5039642;28;20485;-80
2021/03/24 02:29:27;;;;;;;13.68;7.70;;;;;;;;;;5057191;28;20554;-79
2021/03/24 02:31:54;;;;;;;15.55;8.15;;;;;;;;;;5058039;28;20098;-81
2021/03/24 02:34:23;;;;;;;17.60;7.82;;;;;;;;;;5051767;28;20112;-83
2021/03/24 02:36:50;;;;;;;16.65;8.38;;;;;;;;;;5045768;28;20044;-80
2021/03/24 02:39:17;;;;;;;16.33;8.63;;;;;;;;;;5055819;28;20048;-80
2021/03/24 02:41:44;;;;;;;15.93;7.20;;;;;;;;;;5041026;28;20060;-81
2021/03/24 02:44:12;;;;;;;13.70;7.78;;;;;;;;;;5045812;28;20056;-81
2021/03/24 02:46:39;;;;;;;14.70;7.15;;;;;;;;;;5039181;28;20414;-80
2021/03/24 02:49:06;;;;;;;14.68;8.00;;;;;;;;;;5056094;28;20053;-81
2021/03/24 02:51:32;;;;;;;12.93;7.75;;;;;;;;;;5058472;28;20052;-81
2021/03/24 02:53:58;;;;;;;17.77;10.05;;;;;;;;;;5048851;28;20096;-80
2021/03/24 02:56:24;;;;;;;17.88;9.18;;;;;;;;;;5051550;28;20045;-79
2021/03/24 02:58:51;;;;;;;16.25;8.10;;;;;;;;;;5052295;28;20042;-80
2021/03/24 03:01:22;;;;;;;15.02;7.35;;;;;;;;;;5039461;28;20056;-80
2021/03/24 03:03:51;;;;;;;15.93;7.63;;;;;;;;;;5053224;28;20041;-81
2021/03/24 03:06:19;;;;;;;13.27;8.10;;;;;;;;;;5049705;28;20505;-82
2021/03/24 03:08:48;;;;;;;13.20;7.93;;;;;;;;;;5056963;28;20056;-78
2021/03/24 03:11:17;;;;;;;16.45;8.77;;;;;;;;;;5058541;28;20060;-81
2021/03/24 03:13:48;;;;;;;16.05;8.13;;;;;;;;;;5049158;28;20096;-81
2021/03/24 03:16:20;;;;;;;15.68;8.05;;;;;;;;;;5038304;28;20524;-80
2021/03/24 03:18:50;;;;;;;14.60;7.55;;;;;;;;;;5038336;28;20501;-79
2021/03/24 03:21:20;;;;;;;20.48;9.27;;;;;;;;;;5038492;28;20045;-79
2021/03/24 03:23:47;;;;;;;16.08;8.68;;;;;;;;;;5044638;28;20045;-79
2021/03/24 03:26:15;;;;;;;15.77;9.10;;;;;;;;;;5040630;28;20057;-81
2021/03/24 03:28:42;;;;;;;16.05;8.68;;;;;;;;;;5038673;28;20053;-82
2021/03/24 03:31:11;;;;;;;21.55;9.45;;;;;;;;;;5057410;28;20045;-81
2021/03/24 03:33:40;;;;;;;17.75;8.45;;;;;;;;;;5050107;28;20049;-79
2021/03/24 03:36:07;;;;;;;17.73;8.90;;;;;;;;;;5056985;28;20053;-80
2021/03/24 03:38:34;;;;;;;18.70;7.82;;;;;;;;;;5047541;28;20057;-80
2021/03/24 03:41:02;;;;;;;16.40;8.85;;;;;;;;;;5045781;28;20041;-80
2021/03/24 03:43:28;;;;;;;17.42;8.73;;;;;;;;;;5056961;28;20041;-81
2021/03/24 03:45:56;;;;;;;21.50;10.80;;;;;;;;;;5040990;28;20049;-78
2021/03/24 03:48:22;;;;;;;18.35;9.25;;;;;;;;;;5049634;28;20056;-80
2021/03/24 03:50:53;;;;;;;21.75;10.05;;;;;;;;;;5057795;28;20062;-80
2021/03/24 03:53:23;;;;;;;15.30;8.80;;;;;;;;;;5048463;28;20112;-80
2021/03/24 03:55:53;;;;;;;16.27;8.88;;;;;;;;;;5041494;28;20068;-79
2021/03/24 03:58:31;;;;;;;15.30;8.43;;;;;;;;;;5044773;28;20056;-80
2021/03/24 04:01:04;;;;;;;20.98;9.07;;;;;;;;;;5049869;28;20107;-80
2021/03/24 04:03:35;;;;;;;15.35;8.10;;;;;;;;;;5058379;28;20049;-80
2021/03/24 04:06:05;;;;;;;18.88;9.77;;;;;;;;;;5037915;28;20490;-79
2021/03/24 04:08:33;;;;;;;20.27;9.40;;;;;;;;;;5041260;28;20053;-78
2021/03/24 04:11:02;;;;;;;19.05;9.32;;;;;;;;;;5037784;28;20053;-80
2021/03/24 04:13:30;;;;;;;16.92;9.32;;;;;;;;;;5037800;28;20057;-81
2021/03/24 04:15:57;;;;;;;21.75;9.93;;;;;;;;;;5039113;28;20049;-80
2021/03/24 04:18:25;;;;;;;19.52;10.02;;;;;;;;;;5040056;28;20050;-79
2021/03/24 04:20:53;;;;;;;19.42;8.80;;;;;;;;;;5041144;28;20551;-81
2021/03/24 04:23:23;;;;;;;21.05;10.43;;;;;;;;;;5045385;28;20052;-80
2021/03/24 04:25:54;;;;;;;20.60;10.07;;;;;;;;;;5045190;28;20065;-79
2021/03/24 04:28:22;;;;;;;19.05;9.02;;;;;;;;;;5043418;28;20521;-82
2021/03/24 04:30:52;;;;;;;16.13;9.35;;;;;;;;;;5045947;28;20052;-81
2021/03/24 04:33:18;;;;;;;18.40;8.75;;;;;;;;;;5055252;28;20049;-80
2021/03/24 04:35:44;;;;;;;18.17;9.18;;;;;;;;;;5050835;28;20099;-81
2021/03/24 04:38:23;;;;;;;19.10;8.70;;;;;;;;;;5054253;28;20045;-83
2021/03/24 04:40:50;;;;;;;18.98;9.07;;;;;;;;;;5052127;28;20052;-80
2021/03/24 04:43:19;;;;;;;19.38;9.02;;;;;;;;;;5057419;28;20048;-80
2021/03/24 04:45:47;;;;;;;19.38;9.10;;;;;;;;;;5046856;28;20049;-82
2021/03/24 04:48:15;;;;;;;17.73;8.55;;;;;;;;;;5053575;28;20049;-81
2021/03/24 04:50:44;;;;;;;17.17;8.85;;;;;;;;;;5060809;28;20045;-83
2021/03/24 04:53:15;;;;;;;19.08;9.18;;;;;;;;;;5060772;28;20053;-81
2021/03/24 04:55:43;;;;;;;18.60;9.23;;;;;;;;;;5046413;28;20096;-81
2021/03/24 04:58:18;;;;;;;21.73;9.40;;;;;;;;;;5049771;28;20045;-80
2021/03/24 05:00:48;;;;;;;20.23;9.60;;;;;;;;;;5055161;28;20046;-79
2021/03/24 05:03:17;;;;;;;18.40;8.63;;;;;;;;;;5042915;28;20414;-79
2021/03/24 05:05:45;;;;;;;19.65;8.82;;;;;;;;;;5052802;28;20041;-80
2021/03/24 05:08:16;;;;;;;20.58;8.30;;;;;;;;;;5041328;28;20052;-79
2021/03/24 05:10:42;;;;;;;19.90;10.38;;;;;;;;;;5038292;28;20049;-79
2021/03/24 05:13:13;;;;;;;22.65;10.40;;;;;;;;;;5053368;28;20048;-79
2021/03/24 05:15:43;;;;;;;21.10;10.43;;;;;;;;;;5049314;28;20045;-81
2021/03/24 05:18:13;;;;;;;18.88;9.15;;;;;;;;;;5052755;28;20045;-81
2021/03/24 05:20:43;;;;;;;20.15;9.48;;;;;;;;;;5044298;28;20452;-81
2021/03/24 05:23:09;;;;;;;22.73;10.45;;;;;;;;;;5039671;28;20052;-79
2021/03/24 05:25:38;;;;;;;28.50;12.10;;;;;;;;;;5043664;28;20477;-80
2021/03/24 05:28:08;;;;;;;29.27;10.93;;;;;;;;;;5039158;28;20052;-79
2021/03/24 05:30:37;;;;;;;27.63;11.27;;;;;;;;;;5054806;28;20052;-79
2021/03/24 05:33:05;;;;;;;21.40;9.75;;;;;;;;;;5054260;28;20114;-79
2021/03/24 05:35:42;;;;;;;20.58;10.43;;;;;;;;;;5049595;28;20444;-79
2021/03/24 05:38:15;;;;;;;23.23;9.73;;;;;;;;;;5053271;28;20052;-80
2021/03/24 05:40:54;;;;;;;23.17;10.35;;;;;;;;;;5044508;28;20052;-81
2021/03/24 05:43:31;;;;;;;24.25;9.85;;;;;;;;;;5048881;28;20049;-81
2021/03/24 05:46:05;;;;;;;21.20;10.43;;;;;;;;;;5051064;28;20425;-79
2021/03/24 05:48:55;;;;;;;17.92;10.43;;;;;;;;;;5058049;28;20049;-81
2021/03/24 05:51:28;;;;;;;21.58;9.55;;;;;;;;;;5058893;28;20045;-81
2021/03/24 05:54:10;;;;;;;18.70;9.18;;;;;;;;;;5038584;28;20045;-83
2021/03/24 05:56:54;;;;;;;19.88;9.00;;;;;;;;;;5047744;28;20041;-81
2021/03/24 05:59:24;;;;;;;20.77;9.68;;;;;;;;;;5049048;28;20064;-82
2021/03/24 06:01:54;;;;;;;28.70;13.20;;;;;;;;;;5049499;28;20556;-81
2021/03/24 06:04:24;;;;;;;31.88;14.30;;;;;;;;;;5058027;28;20072;-83
2021/03/24 06:07:20;;;;;;;30.08;13.55;;;;;;;;;;5052501;28;20727;-80
2021/03/24 06:09:54;;;;;;;32.88;14.68;;;;;;;;;;5058244;28;20048;-80
2021/03/24 06:12:50;;;;;;;40.97;17.30;;;;;;;;;;5058624;28;20648;-80
2021/03/24 06:16:10;;;;;;;39.47;17.13;;;;;;;;;;5058891;28;20056;-82
2021/03/24 06:18:46;;;;;;;33.20;13.63;;;;;;;;;;4983391;28;20519;-81
2021/03/24 06:21:15;;;;;;;24.92;12.45;;;;;;;;;;5046823;28;20045;-80
2021/03/24 06:23:50;;;;;;;28.75;11.88;;;;;;;;;;5058897;28;20509;-81
2021/03/24 06:26:27;;;;;;;22.67;11.48;;;;;;;;;;5053631;28;20056;-79
2021/03/24 06:29:00;;;;;;;23.75;11.18;;;;;;;;;;5059114;28;20041;-81
2021/03/24 06:31:50;;;;;;;25.92;10.73;;;;;;;;;;5049299;28;20054;-81
2021/03/24 06:34:39;;;;;;;24.02;11.75;;;;;;;;;;5052394;28;20045;-79
2021/03/24 06:37:17;;;;;;;20.90;10.82;;;;;;;;;;5048151;28;20054;-80
2021/03/24 06:40:21;;;;;;;19.60;10.32;;;;;;;;;;5038569;28;20045;-80
2021/03/24 06:42:56;;;;;;;22.90;10.20;;;;;;;;;;5038307;28;20053;-79
2021/03/24 06:45:53;;;;;;;21.35;11.60;;;;;;;;;;5038559;28;20076;-80
2021/03/24 06:48:49;;;;;;;23.70;13.48;;;;;;;;;;4996569;28;20061;-82
2021/03/24 06:52:28;;;;;;;30.65;13.68;;;;;;;;;;5044590;28;20056;-83
2021/03/24 06:55:37;;;;;;;26.92;13.30;;;;;;;;;;4957447;29;20047;-80
2021/03/24 06:58:31;;;;;;;36.05;11.20;;;;;;;;;;4911347;29;20058;-80
2021/03/24 07:01:11;;;;;;;27.38;12.35;;;;;;;;;;5030097;28;20107;-80
2021/03/24 07:04:15;;;;;;;19.02;9.98;;;;;;;;;;5046574;28;20042;-81
2021/03/24 07:06:49;;;;;;;22.45;10.35;;;;;;;;;;5045951;28;20091;-79
2021/03/24 07:09:21;;;;;;;21.70;11.48;;;;;;;;;;5048775;28;20046;-80
2021/03/24 07:11:56;;;;;;;23.40;12.10;;;;;;;;;;5050934;28;20080;-81
2021/03/24 07:14:46;;;;;;;22.25;11.75;;;;;;;;;;5050084;28;20490;-80
2021/03/24 07:17:39;;;;;;;23.45;11.07;;;;;;;;;;5047857;28;20072;-81
2021/03/24 07:20:30;;;;;;;25.05;12.40;;;;;;;;;;5057416;28;20052;-80
2021/03/24 07:23:07;;;;;;;24.33;12.85;;;;;;;;;;5022859;28;20048;-80
2021/03/24 07:25:42;;;;;;;23.25;12.10;;;;;;;;;;5057543;28;20068;-79
2021/03/24 07:28:23;;;;;;;23.67;13.07;;;;;;;;;;5057236;28;20507;-80
2021/03/24 07:31:13;;;;;;;28.40;13.32;;;;;;;;;;5057362;28;20045;-80
2021/03/24 07:33:44;;;;;;;26.33;12.10;;;;;;;;;;5057679;28;20485;-79
2021/03/24 07:36:26;;;;;;;28.13;13.63;;;;;;;;;;5053608;28;20058;-81
2021/03/24 07:39:08;;;;;;;34.35;14.98;;;;;;;;;;5037433;28;20049;-81
2021/03/24 07:42:00;;;;;;;33.85;14.60;;;;;;;;;;5048666;28;20053;-81
2021/03/24 07:44:45;;;;;;;31.63;14.63;;;;;;;;;;5057205;28;20048;-82
2021/03/24 07:47:55;;;;;;;34.53;15.00;;;;;;;;;;5056316;28;20041;-81
2021/03/24 07:50:39;;;;;;;36.35;16.58;;;;;;;;;;5055478;28;20084;-80
2021/03/24 07:53:29;;;;;;;33.65;14.93;;;;;;;;;;5060283;28;20049;-78
2021/03/24 07:56:05;;;;;;;28.55;15.25;;;;;;;;;;5054030;28;20052;-84
2021/03/24 07:59:04;;;;;;;32.33;16.45;;;;;;;;;;5060703;28;20049;-81
2021/03/24 08:01:36;;;;;;;29.42;15.55;;;;;;;;;;5050677;28;20049;-83
2021/03/24 08:04:16;;;;;;;26.48;15.35;;;;;;;;;;5048730;28;20037;-79
2021/03/24 08:06:55;;;;;;;28.58;14.93;;;;;;;;;;5043799;28;20046;-79
2021/03/24 08:09:42;;;;;;;24.33;13.60;;;;;;;;;;5041018;28;20050;-83
2021/03/24 08:12:21;;;;;;;24.45;12.90;;;;;;;;;;5040918;28;20051;-83
2021/03/24 08:15:06;;;;;;;24.85;15.40;;;;;;;;;;5039199;28;20061;-78
2021/03/24 08:17:44;;;;;;;21.02;12.65;;;;;;;;;;5039749;28;20049;-79
2021/03/24 08:20:19;;;;;;;21.88;12.52;;;;;;;;;;5041080;28;20474;-81
2021/03/24 08:22:53;;;;;;;21.48;12.35;;;;;;;;;;5060649;28;20053;-80
2021/03/24 08:25:33;;;;;;;21.95;12.00;;;;;;;;;;5059474;28;20052;-79
2021/03/24 08:28:04;;;;;;;21.33;13.10;;;;;;;;;;5041348;28;20104;-80
2021/03/24 08:30:49;;;;;;;22.27;13.13;;;;;;;;;;5038630;28;20045;-79
2021/03/24 08:33:28;;;;;;;21.90;12.25;;;;;;;;;;5039926;28;20103;-79
2021/03/24 08:36:06;;;;;;;20.45;12.70;;;;;;;;;;5056241;28;20045;-79
2021/03/24 08:38:52;;;;;;;25.60;12.68;;;;;;;;;;5057854;28;20041;-79
2021/03/24 08:41:57;;;;;;;19.67;11.73;;;;;;;;;;5058719;28;20072;-80
2021/03/24 08:44:26;;;;;;;22.17;13.23;;;;;;;;;;5034676;28;20053;-79
2021/03/24 08:46:56;;;;;;;22.40;11.90;;;;;;;;;;5059194;28;20041;-79
2021/03/24 08:49:24;;;;;;;21.50;13.07;;;;;;;;;;5059676;28;20063;-81
2021/03/24 08:51:58;;;;;;;19.38;12.18;;;;;;;;;;5059851;28;20053;-82
2021/03/24 08:54:49;;;;;;;25.08;11.75;;;;;;;;;;5060054;28;20504;-81
2021/03/24 08:57:23;;;;;;;19.27;11.85;;;;;;;;;;5047372;28;20056;-79
2021/03/24 08:59:52;;;;;;;19.70;11.90;;;;;;;;;;5039960;28;20046;-79
2021/03/24 09:02:27;;;;;;;17.88;11.98;;;;;;;;;;5047391;28;20049;-79
2021/03/24 09:05:11;;;;;;;19.48;11.85;;;;;;;;;;5047560;28;20044;-80
2021/03/24 09:07:55;;;;;;;17.65;11.75;;;;;;;;;;5054174;28;20041;-80
2021/03/24 09:10:30;;;;;;;18.50;11.45;;;;;;;;;;5059524;28;20052;-79
2021/03/24 09:13:01;;;;;;;17.15;11.43;;;;;;;;;;5059294;28;20049;-80
2021/03/24 09:15:35;;;;;;;18.77;11.68;;;;;;;;;;5059914;28;20057;-79
2021/03/24 09:18:10;;;;;;;17.10;12.25;;;;;;;;;;5040689;28;20504;-79
2021/03/24 09:20:53;;;;;;;19.08;11.57;;;;;;;;;;5038194;28;20657;-79
2021/03/24 09:23:55;;;;;;;15.45;11.05;;;;;;;;;;5038428;28;20103;-78
2021/03/24 09:27:05;;;;;;;20.95;12.20;;;;;;;;;;5039773;28;20088;-79
2021/03/24 09:29:42;;;;;;;15.70;10.45;;;;;;;;;;5058710;28;20044;-79
2021/03/24 09:32:23;;;;;;;15.30;11.00;;;;;;;;;;5057705;28;20049;-78
2021/03/24 09:35:23;;;;;;;16.40;10.80;;;;;;;;;;5058590;28;20053;-80
2021/03/24 09:37:57;;;;;;;14.60;10.82;;;;;;;;;;5055174;28;20049;-78
2021/03/24 09:40:36;;;;;;;16.90;11.57;;;;;;;;;;5058861;28;20045;-79
2021/03/24 09:43:05;;;;;;;15.50;11.63;;;;;;;;;;5052822;28;20049;-79
2021/03/24 09:45:34;;;;;;;23.10;12.32;;;;;;;;;;5038672;28;20072;-80
2021/03/24 09:48:05;;;;;;;17.73;11.60;;;;;;;;;;5040853;28;20052;-81
2021/03/24 09:50:34;;;;;;;17.20;11.82;;;;;;;;;;5039227;28;20045;-82
2021/03/24 09:53:03;;;;;;;17.35;11.02;;;;;;;;;;5039444;28;20077;-80
2021/03/24 09:55:33;;;;;;;14.88;11.23;;;;;;;;;;5038892;28;20060;-81
2021/03/24 09:58:38;;;;;;;17.02;11.75;;;;;;;;;;5040959;28;20041;-80
2021/03/24 10:01:43;;;;;;;21.63;12.60;;;;;;;;;;5039017;28;20445;-80
2021/03/24 10:04:16;;;;;;;16.20;11.73;;;;;;;;;;5019505;28;20041;-79
2021/03/24 10:06:49;;;;;;;18.00;11.20;;;;;;;;;;5039635;28;20038;-80
2021/03/24 10:09:27;;;;;;;18.80;12.07;;;;;;;;;;5038292;28;20053;-81
2021/03/24 10:12:04;;;;;;;20.58;12.93;;;;;;;;;;5038656;28;20049;-79
2021/03/24 10:14:34;;;;;;;18.77;12.88;;;;;;;;;;5037806;28;20492;-79
2021/03/24 10:17:03;;;;;;;19.70;13.25;;;;;;;;;;5038257;28;20047;-79
2021/03/24 10:19:34;;;;;;;16.92;12.13;;;;;;;;;;5038386;28;20049;-82
2021/03/24 10:22:07;;;;;;;18.52;12.57;;;;;;;;;;5038649;28;20046;-79
2021/03/24 10:24:41;;;;;;;15.68;11.65;;;;;;;;;;5038697;28;20069;-80
2021/03/24 10:27:10;;;;;;;20.85;12.35;;;;;;;;;;5038975;28;20522;-80
2021/03/24 10:29:38;;;;;;;17.30;11.70;;;;;;;;;;5037866;28;20051;-80
2021/03/24 10:32:06;;;;;;;17.25;11.98;;;;;;;;;;5038027;28;20089;-80
2021/03/24 10:34:36;;;;;;;15.55;11.55;;;;;;;;;;5038044;28;20521;-80
2021/03/24 10:37:09;;;;;;;16.70;11.52;;;;;;;;;;5040959;28;20072;-79
2021/03/24 10:39:40;;;;;;;16.90;11.88;;;;;;;;;;5038154;28;20052;-81
2021/03/24 10:42:17;;;;;;;15.55;11.45;;;;;;;;;;5038017;28;20095;-80
2021/03/24 10:44:48;;;;;;;15.18;10.85;;;;;;;;;;5038064;28;20525;-79
2021/03/24 10:47:21;;;;;;;18.48;12.32;;;;;;;;;;5040439;28;20073;-78
2021/03/24 10:50:03;;;;;;;17.27;12.05;;;;;;;;;;5037633;28;20045;-79
2021/03/24 10:52:37;;;;;;;17.85;11.68;;;;;;;;;;5038151;28;20049;-79
2021/03/24 10:55:10;;;;;;;16.90;11.48;;;;;;;;;;5038257;28;20046;-78
2021/03/24 10:57:44;;;;;;;14.63;11.27;;;;;;;;;;5051970;28;20053;-79
2021/03/24 11:00:19;;;;;;;14.57;11.38;;;;;;;;;;5054480;28;20485;-77
2021/03/24 11:02:54;;;;;;;15.73;11.75;;;;;;;;;;5051134;28;20418;-79
2021/03/24 11:05:25;;;;;;;15.05;10.63;;;;;;;;;;5046273;28;20041;-78
2021/03/24 11:07:54;;;;;;;15.93;11.90;;;;;;;;;;5046427;28;20048;-79
2021/03/24 11:10:49;;;;;;;14.30;10.23;;;;;;;;;;5034065;28;20053;-77
2021/03/24 11:13:25;;;;;;;13.98;9.98;;;;;;;;;;5033847;28;20056;-79
2021/03/24 11:16:03;;;;;;;14.52;10.80;;;;;;;;;;5033871;28;20509;-79
2021/03/24 11:18:34;;;;;;;16.20;11.05;;;;;;;;;;5034335;28;20042;-78
2021/03/24 11:21:06;;;;;;;15.23;11.07;;;;;;;;;;5033971;28;20046;-78
2021/03/24 11:23:36;;;;;;;16.45;10.73;;;;;;;;;;5034849;28;20045;-79
2021/03/24 11:26:26;;;;;;;14.73;10.88;;;;;;;;;;5035375;28;20042;-78
2021/03/24 11:28:55;;;;;;;14.30;10.63;;;;;;;;;;5058852;28;20055;-80
2021/03/24 11:31:25;;;;;;;12.63;10.57;;;;;;;;;;5059516;28;20056;-80
2021/03/24 11:33:53;;;;;;;14.40;9.65;;;;;;;;;;5060091;28;20436;-78
2021/03/24 11:36:24;;;;;;;14.15;9.68;;;;;;;;;;5056270;28;20053;-82
2021/03/24 11:38:55;;;;;;;18.33;10.90;;;;;;;;;;5039602;28;20282;-80
2021/03/24 11:41:23;;;;;;;15.80;10.38;;;;;;;;;;5039587;28;20092;-80
2021/03/24 11:43:57;;;;;;;13.57;9.77;;;;;;;;;;5039512;28;20052;-79
2021/03/24 11:46:27;;;;;;;15.00;10.15;;;;;;;;;;5040216;28;20100;-80
2021/03/24 11:49:03;;;;;;;16.13;10.38;;;;;;;;;;5039382;28;20049;-81
2021/03/24 11:51:40;;;;;;;11.20;8.98;;;;;;;;;;5039274;28;20049;-78
2021/03/24 11:54:17;;;;;;;12.38;9.65;;;;;;;;;;5039350;28;20049;-79
2021/03/24 11:56:54;;;;;;;12.02;9.10;;;;;;;;;;5040107;28;20171;-78
2021/03/24 11:59:26;;;;;;;11.63;9.07;;;;;;;;;;5039194;28;20049;-78
2021/03/24 12:02:01;;;;;;;13.30;9.48;;;;;;;;;;5039154;28;20049;-80
2021/03/24 12:04:36;;;;;;;12.40;9.65;;;;;;;;;;5044723;28;20045;-79
2021/03/24 12:07:13;;;;;;;10.73;8.63;;;;;;;;;;5050898;28;20132;-79
2021/03/24 12:09:40;;;;;;;12.77;9.27;;;;;;;;;;5038914;28;20050;-78
2021/03/24 12:12:14;;;;;;;14.60;9.30;;;;;;;;;;5038978;28;20057;-80
2021/03/24 12:14:41;;;;;;;13.90;9.73;;;;;;;;;;5039417;28;20049;-80
2021/03/24 12:17:23;;;;;;;12.55;9.27;;;;;;;;;;5039231;28;20085;-79
2021/03/24 12:19:49;;;;;;;13.13;10.02;;;;;;;;;;5038696;28;20494;-78
2021/03/24 12:22:27;;;;;;;11.38;9.40;;;;;;;;;;5038704;28;20060;-79
2021/03/24 12:25:01;;;;;;;12.40;8.90;;;;;;;;;;5038839;28;20041;-79
2021/03/24 12:27:32;;;;;;;9.38;7.72;;;;;;;;;;5039148;28;20041;-80
2021/03/24 12:30:01;;;;;;;11.07;8.63;;;;;;;;;;5038884;28;20052;-79
2021/03/24 12:32:29;;;;;;;10.27;8.30;;;;;;;;;;5038391;28;20045;-79
2021/03/24 12:34:55;;;;;;;11.10;8.27;;;;;;;;;;5038829;28;20045;-79
2021/03/24 12:37:26;;;;;;;11.63;8.88;;;;;;;;;;5038660;28;20045;-79
2021/03/24 12:39:53;;;;;;;9.60;7.53;;;;;;;;;;5038022;28;20077;-79
2021/03/24 12:42:26;;;;;;;11.15;7.13;;;;;;;;;;5036312;28;20116;-79
2021/03/24 12:44:53;;;;;;;10.85;7.60;;;;;;;;;;5043872;28;20111;-78
2021/03/24 12:47:31;;;;;;;9.35;7.30;;;;;;;;;;5049247;28;20501;-79
2021/03/24 12:50:20;;;;;;;9.82;7.38;;;;;;;;;;5039137;28;20128;-79
2021/03/24 12:52:50;;;;;;;9.10;6.90;;;;;;;;;;5048071;28;20488;-78
2021/03/24 12:55:17;;;;;;;10.60;6.50;;;;;;;;;;5055804;28;20045;-77
2021/03/24 12:57:47;;;;;;;8.50;6.55;;;;;;;;;;5048483;28;20056;-81
2021/03/24 13:00:40;;;;;;;10.40;7.00;;;;;;;;;;5055946;28;20056;-79
2021/03/24 13:03:54;;;;;;;12.82;7.30;;;;;;;;;;5050636;28;20049;-79
2021/03/24 13:06:29;;;;;;;8.52;6.13;;;;;;;;;;5047903;28;20041;-79
2021/03/24 13:09:03;;;;;;;10.27;6.13;;;;;;;;;;5051281;28;20045;-78
2021/03/24 13:11:35;;;;;;;10.15;6.43;;;;;;;;;;5052410;28;20049;-78
2021/03/24 13:14:29;;;;;;;11.38;7.28;;;;;;;;;;5057775;28;20045;-78
2021/03/24 13:16:59;;;;;;;7.85;6.38;;;;;;;;;;5047483;28;20044;-79
2021/03/24 13:19:28;;;;;;;9.88;6.70;;;;;;;;;;5044395;28;20536;-79
2021/03/24 13:22:00;;;;;;;8.95;6.47;;;;;;;;;;5039453;28;20045;-78
2021/03/24 13:25:05;;;;;;;10.35;6.00;;;;;;;;;;5046146;28;20057;-79
2021/03/24 13:27:43;;;;;;;9.82;6.65;;;;;;;;;;5040537;28;20052;-80
2021/03/24 13:30:18;;;;;;;7.82;6.40;;;;;;;;;;5046239;28;20057;-79
2021/03/24 13:32:49;;;;;;;8.80;5.93;;;;;;;;;;5044794;28;20041;-80
2021/03/24 13:35:22;;;;;;;9.30;5.60;;;;;;;;;;5038309;28;20054;-78
2021/03/24 13:37:48;;;;;;;6.25;4.90;;;;;;;;;;5047190;28;20091;-79
2021/03/24 13:40:21;;;;;;;7.13;4.70;;;;;;;;;;5037225;28;20053;-79
2021/03/24 13:42:53;;;;;;;6.28;4.32;;;;;;;;;;5047541;28;20041;-78
2021/03/24 13:45:25;;;;;;;8.88;5.38;;;;;;;;;;5040351;28;20038;-77
2021/03/24 13:47:57;;;;;;;8.63;5.47;;;;;;;;;;5052503;28;20049;-78
2021/03/24 13:50:24;;;;;;;8.38;5.70;;;;;;;;;;5041226;28;20049;-82
2021/03/24 13:52:53;;;;;;;8.13;5.15;;;;;;;;;;5040976;28;20125;-77
2021/03/24 13:55:52;;;;;;;8.68;5.00;;;;;;;;;;5049045;28;20049;-80
2021/03/24 13:59:06;;;;;;;8.35;4.65;;;;;;;;;;5056184;28;20048;-79
2021/03/24 14:01:42;;;;;;;8.80;4.40;;;;;;;;;;5057050;28;20115;-79
2021/03/24 14:04:21;;;;;;;10.02;5.85;;;;;;;;;;5055252;28;20045;-79
2021/03/24 14:07:00;;;;;;;9.05;6.03;;;;;;;;;;5047697;28;20135;-80
2021/03/24 14:09:28;;;;;;;9.25;5.75;;;;;;;;;;5049337;28;20056;-79
2021/03/24 14:12:04;;;;;;;8.40;5.68;;;;;;;;;;5038305;28;20436;-78
2021/03/24 14:14:41;;;;;;;9.30;5.45;;;;;;;;;;5038816;28;20053;-80
2021/03/24 14:17:14;;;;;;;7.72;5.15;;;;;;;;;;5039007;28;20041;-80
2021/03/24 14:19:45;;;;;;;7.72;4.85;;;;;;;;;;5047970;28;20056;-79
2021/03/24 14:22:21;;;;;;;7.60;5.10;;;;;;;;;;5057630;28;20044;-80
2021/03/24 14:25:02;;;;;;;6.32;4.05;;;;;;;;;;5058410;28;20051;-78
2021/03/24 14:27:32;;;;;;;8.27;4.63;;;;;;;;;;5056194;28;20488;-77
2021/03/24 14:30:06;;;;;;;7.85;4.07;;;;;;;;;;5046133;28;20053;-78
2021/03/24 14:32:42;;;;;;;6.50;4.10;;;;;;;;;;5048829;28;20053;-80
2021/03/24 14:35:18;;;;;;;5.85;4.25;;;;;;;;;;5058025;28;20485;-80
2021/03/24 14:37:56;;;;;;;7.18;4.40;;;;;;;;;;5054285;28;20045;-79
2021/03/24 14:40:32;;;;;;;6.40;4.43;;;;;;;;;;5043400;28;20046;-78
2021/03/24 14:43:06;;;;;;;5.15;4.20;;;;;;;;;;5051967;28;20080;-79
2021/03/24 14:45:42;;;;;;;8.05;4.45;;;;;;;;;;5058369;28;20041;-79
2021/03/24 14:48:18;;;;;;;6.28;4.13;;;;;;;;;;5039198;28;20050;-79
2021/03/24 14:50:52;;;;;;;6.53;4.55;;;;;;;;;;5045606;28;20092;-77
2021/03/24 14:53:33;;;;;;;5.90;3.90;;;;;;;;;;5046016;28;20045;-79
2021/03/24 14:56:02;;;;;;;6.50;3.75;;;;;;;;;;5039525;28;20041;-79
2021/03/24 14:58:58;;;;;;;5.68;4.13;;;;;;;;;;5053402;28;20053;-79
2021/03/24 15:01:37;;;;;;;6.38;4.50;;;;;;;;;;5036088;28;20056;-79
2021/03/24 15:04:17;;;;;;;6.28;3.97;;;;;;;;;;5044781;28;20049;-80
2021/03/24 15:06:47;;;;;;;6.72;4.63;;;;;;;;;;5049855;28;20087;-81
2021/03/24 15:09:16;;;;;;;6.30;4.05;;;;;;;;;;5043410;28;20121;-80